Meath Environmental Platform

Observations for Trim Patrick St

Time AQI Temp °C Hum % Pres Pa CO μg/m³ H₂S μg/m³ NO μg/m³ NO₂ μg/m³ O₃ μg/m³ SO₂ μg/m³ PM1 μg/m³ PM2.5 μg/m³ PM10 μg/m³
Friday 7 August 2026
17:00 3 32.6 28 69,282 0 0 0.65 12.37 68.18 15.42 2.86 9.4 10.34
16:59 3 32.6 28 69,282 0 0 0.73 14.19 75.76 15.39 3.71 11.06 12.17
16:58 3 32.6 29 69,271 0 0 0.69 12.45 72.39 15.54 2.86 9.38 10.32
16:57 3 32.4 30 69,276 0 0 0.68 11.83 33.24 13.54 2 8.49 9.34
16:56 3 32.2 30 69,269 0 0 0.77 15.38 80.33 15.04 2 9.3 10.23
16:55 3 32.1 30 69,258 0 5.63 0.81 27.14 98.75 15.15 2.86 10.11 11.12
16:54 3 31.9 29 69,242 0 0 0.89 17.01 92.65 14.63 2 8.54 9.39
16:53 3 31.8 29 69,230 0 0 0.92 13.97 71.42 14.19 2.86 9.33 10.26
16:52 3 31.6 31 69,214 0 0 0.87 12.9 68.44 14.31 2.86 9.25 10.17
16:51 3 31.4 30 69,222 0 3.79 0.97 16.61 104.74 15.05 2.86 10.08 11.09
16:50 3 31.3 30 69,202 0 1.36 1.02 15.37 89.89 13.9 2.86 9.29 10.22
16:49 3 31.2 30 69,214 0 0 1.04 15.56 104.96 14.81 3.71 9.28 10.21
16:48 3 31.1 31 69,201 0 0 1.03 13.25 76.33 14.43 3.71 10.04 11.05
16:47 3 31.1 30 69,179 0 0 1.06 15.56 95.28 13.99 2 7.67 8.44
16:46 3 31 30 69,179 0 3.37 1.05 14.19 93.38 14.64 2.86 9.3 10.23
16:45 3 30.9 31 69,177 0 2.98 0.99 17.72 97.04 13.51 2.86 9.23 10.15
16:44 3 30.8 31 69,181 0 0 1.07 12.08 76.96 14.52 2.86 9.23 10.16
16:43 3 30.7 31 69,191 0 0 1.05 11.82 72.26 14.45 2.86 10.02 11.02
16:42 3 30.6 32 69,204 0 3.79 1.05 14.5 103.29 14.65 2.86 9.95 10.95
16:41 3 30.6 30 69,193 0 0 1.15 13.43 111.24 15.52 2.86 10.06 11.06